PWSweather.com
Personal Weather Stations
Station Observations
KCTHAMDEN
Dunbar Hill, Hamden, CT 06514

Dunbar HillHamden, CT 06514

Lat: 41.365437, Lon: -72.956532

Elevation: 200

Station Type: Davis Vantage Pro2+

www.hamdenweather.com

High Low Average
Temperature 59.0°F15.0°C 39.8°F4.3°C 48.4°F9.1°C
Dew Point 47.7°F8.7°C 38.8°F3.8°C 43.5°F6.4°C
Winds 2.6 mph 4.2 kmh Calm Calm Calm SECalm SE
Wind Gusts 6.0 mph9.7 kmh -- 1.0 mph1.6 kmh
Humidity 98% 57% 85%
Pressure 30.25 in1024.4 mb 30.11 in1019.6 mb -
Precipitation 0.00 in0.0 mm - -
Hour Temp Dew Point Humidity Winds Wind Gusts Pressure Precip Precip Rate Daily Precip Total
12:00 AM 42.1°F5.6°C 40.7°F4.8°C 95% Calm Calm -- 30.09 in1019.0 mb - 0.00 in0.0 mm 0.00 in0.0 mm
12:15 AM 41.5°F5.3°C 40.2°F4.6°C 95% Calm Calm -- 30.10 in1019.3 mb - 0.00 in0.0 mm 0.00 in0.0 mm
12:30 AM 41.1°F5.1°C 39.8°F4.3°C 95% Calm Calm -- 30.10 in1019.3 mb - 0.00 in0.0 mm 0.00 in0.0 mm
12:45 AM 40.7°F4.8°C 39.4°F4.1°C 95% Calm Calm -- 30.11 in1019.6 mb - 0.00 in0.0 mm 0.00 in0.0 mm
01:00 AM 40.4°F4.7°C 39.1°F3.9°C 95% Calm Calm -- 30.11 in1019.6 mb - 0.00 in0.0 mm 0.00 in0.0 mm
01:15 AM 40.3°F4.6°C 39.0°F3.9°C 95% Calm Calm -- 30.12 in1020.0 mb - 0.00 in0.0 mm 0.00 in0.0 mm
01:30 AM 40.6°F4.8°C 39.5°F4.2°C 96% Calm Calm -- 30.12 in1020.0 mb - 0.00 in0.0 mm 0.00 in0.0 mm
01:45 AM 40.9°F4.9°C 39.8°F4.3°C 96% 0.1 mph N0.2 kmh N 1.0 mph1.6 kmh 30.13 in1020.3 mb - 0.00 in0.0 mm 0.00 in0.0 mm
02:00 AM 41.0°F5.0°C 39.9°F4.4°C 96% Calm Calm -- 30.13 in1020.3 mb - 0.00 in0.0 mm 0.00 in0.0 mm
02:15 AM 41.1°F5.1°C 40.0°F4.4°C 96% Calm Calm -- 30.14 in1020.7 mb - 0.00 in0.0 mm 0.00 in0.0 mm
02:30 AM 41.1°F5.1°C 40.0°F4.4°C 96% Calm Calm -- 30.14 in1020.7 mb - 0.00 in0.0 mm 0.00 in0.0 mm
02:45 AM 41.0°F5.0°C 39.9°F4.4°C 96% Calm Calm -- 30.14 in1020.7 mb - 0.00 in0.0 mm 0.00 in0.0 mm
03:00 AM 40.9°F4.9°C 39.9°F4.4°C 96% Calm Calm -- 30.14 in1020.7 mb - 0.00 in0.0 mm 0.00 in0.0 mm
03:15 AM 40.7°F4.8°C 39.6°F4.2°C 96% Calm Calm -- 30.14 in1020.7 mb - 0.00 in0.0 mm 0.00 in0.0 mm
03:30 AM 40.1°F4.5°C 39.1°F3.9°C 96% Calm Calm -- 30.15 in1021.0 mb - 0.00 in0.0 mm 0.00 in0.0 mm
03:45 AM 39.8°F4.3°C 38.8°F3.8°C 96% Calm Calm -- 30.15 in1021.0 mb - 0.00 in0.0 mm 0.00 in0.0 mm
04:00 AM 39.8°F4.3°C 38.8°F3.8°C 96% Calm Calm -- 30.16 in1021.3 mb - 0.00 in0.0 mm 0.00 in0.0 mm
04:15 AM 40.0°F4.4°C 39.2°F4.0°C 97% Calm Calm -- 30.17 in1021.7 mb - 0.00 in0.0 mm 0.00 in0.0 mm
04:30 AM 40.2°F4.6°C 39.4°F4.1°C 97% Calm Calm -- 30.16 in1021.3 mb - 0.00 in0.0 mm 0.00 in0.0 mm
04:45 AM 40.3°F4.6°C 39.5°F4.2°C 97% Calm Calm -- 30.16 in1021.3 mb - 0.00 in0.0 mm 0.00 in0.0 mm
05:00 AM 40.4°F4.7°C 39.6°F4.2°C 97% Calm Calm -- 30.17 in1021.7 mb - 0.00 in0.0 mm 0.00 in0.0 mm
05:15 AM 40.5°F4.7°C 39.7°F4.3°C 97% Calm Calm -- 30.17 in1021.7 mb - 0.00 in0.0 mm 0.00 in0.0 mm
05:30 AM 40.5°F4.7°C 39.7°F4.3°C 97% Calm Calm -- 30.17 in1021.7 mb - 0.00 in0.0 mm 0.00 in0.0 mm
05:45 AM 40.5°F4.7°C 39.7°F4.3°C 97% Calm Calm -- 30.18 in1022.0 mb - 0.00 in0.0 mm 0.00 in0.0 mm
06:00 AM 40.4°F4.7°C 39.7°F4.3°C 97% Calm Calm -- 30.19 in1022.4 mb - 0.00 in0.0 mm 0.00 in0.0 mm
06:15 AM 40.4°F4.7°C 39.6°F4.2°C 97% Calm Calm -- 30.19 in1022.4 mb - 0.00 in0.0 mm 0.00 in0.0 mm
06:30 AM 40.5°F4.7°C 39.7°F4.3°C 97% Calm Calm -- 30.19 in1022.4 mb - 0.00 in0.0 mm 0.00 in0.0 mm
06:45 AM 40.7°F4.8°C 39.9°F4.4°C 97% Calm Calm -- 30.20 in1022.7 mb - 0.00 in0.0 mm 0.00 in0.0 mm
07:00 AM 40.8°F4.9°C 40.0°F4.4°C 97% Calm Calm -- 30.20 in1022.7 mb - 0.00 in0.0 mm 0.00 in0.0 mm
07:15 AM 40.9°F4.9°C 40.1°F4.5°C 97% Calm Calm -- 30.20 in1022.7 mb - 0.00 in0.0 mm 0.00 in0.0 mm
07:30 AM 41.3°F5.2°C 40.5°F4.7°C 97% Calm Calm -- 30.21 in1023.0 mb - 0.00 in0.0 mm 0.00 in0.0 mm
07:45 AM 41.8°F5.4°C 41.0°F5.0°C 97% 0.3 mph E0.5 kmh E 3.0 mph4.8 kmh 30.22 in1023.4 mb - 0.00 in0.0 mm 0.00 in0.0 mm
08:00 AM 42.3°F5.7°C 41.5°F5.3°C 97% Calm Calm 1.0 mph1.6 kmh 30.22 in1023.4 mb - 0.00 in0.0 mm 0.00 in0.0 mm
08:15 AM 42.8°F6.0°C 42.0°F5.6°C 97% 0.1 mph SE0.2 kmh SE 1.0 mph1.6 kmh 30.21 in1023.0 mb - 0.00 in0.0 mm 0.00 in0.0 mm
08:30 AM 43.3°F6.3°C 42.5°F5.8°C 97% Calm Calm -- 30.22 in1023.4 mb - 0.00 in0.0 mm 0.00 in0.0 mm
08:45 AM 43.9°F6.6°C 43.1°F6.2°C 97% Calm Calm -- 30.24 in1024.0 mb - 0.00 in0.0 mm 0.00 in0.0 mm
09:00 AM 45.1°F7.3°C 44.5°F6.9°C 98% Calm Calm -- 30.22 in1023.4 mb - 0.00 in0.0 mm 0.00 in0.0 mm
09:15 AM 45.9°F7.7°C 45.1°F7.3°C 97% Calm Calm -- 30.23 in1023.7 mb - 0.00 in0.0 mm 0.00 in0.0 mm
09:30 AM 46.8°F8.2°C 46.0°F7.8°C 97% 0.5 mph E0.8 kmh E 1.0 mph1.6 kmh 30.23 in1023.7 mb - 0.00 in0.0 mm 0.00 in0.0 mm
09:45 AM 48.5°F9.2°C 47.4°F8.6°C 96% 0.8 mph E1.3 kmh E 3.0 mph4.8 kmh 30.23 in1023.7 mb - 0.00 in0.0 mm 0.00 in0.0 mm
10:00 AM 50.2°F10.1°C 47.1°F8.4°C 89% 0.1 mph S0.2 kmh S 4.0 mph6.4 kmh 30.24 in1024.0 mb - 0.00 in0.0 mm 0.00 in0.0 mm
10:15 AM 51.8°F11.0°C 46.5°F8.1°C 82% 1.8 mph SW2.9 kmh SW 3.0 mph4.8 kmh 30.24 in1024.0 mb - 0.00 in0.0 mm 0.00 in0.0 mm
10:30 AM 52.4°F11.3°C 45.1°F7.3°C 76% 0.3 mph S0.5 kmh S 2.0 mph3.2 kmh 30.25 in1024.4 mb - 0.00 in0.0 mm 0.00 in0.0 mm
10:45 AM 53.9°F12.2°C 47.5°F8.6°C 79% 0.2 mph SSW0.3 kmh SSW 2.0 mph3.2 kmh 30.25 in1024.4 mb - 0.00 in0.0 mm 0.00 in0.0 mm
11:00 AM 54.9°F12.7°C 46.0°F7.8°C 72% 0.3 mph WSW0.5 kmh WSW 1.0 mph1.6 kmh 30.25 in1024.4 mb - 0.00 in0.0 mm 0.00 in0.0 mm
11:15 AM 55.3°F12.9°C 44.5°F6.9°C 67% 0.7 mph NNE1.1 kmh NNE 3.0 mph4.8 kmh 30.25 in1024.4 mb - 0.00 in0.0 mm 0.00 in0.0 mm
11:30 AM 56.0°F13.3°C 44.8°F7.1°C 66% 1.7 mph SE2.7 kmh SE 6.0 mph9.7 kmh 30.25 in1024.4 mb - 0.00 in0.0 mm 0.00 in0.0 mm
11:45 AM 56.1°F13.4°C 44.5°F6.9°C 65% 1.9 mph N3.1 kmh N 4.0 mph6.4 kmh 30.25 in1024.4 mb - 0.00 in0.0 mm 0.00 in0.0 mm
12:00 PM 56.6°F13.7°C 45.8°F7.7°C 67% 1.7 mph E2.7 kmh E 3.0 mph4.8 kmh 30.25 in1024.4 mb - 0.00 in0.0 mm 0.00 in0.0 mm
12:15 PM 57.8°F14.3°C 45.3°F7.4°C 63% 0.9 mph SE1.4 kmh SE 3.0 mph4.8 kmh 30.25 in1024.4 mb - 0.00 in0.0 mm 0.00 in0.0 mm
12:30 PM 58.2°F14.6°C 45.2°F7.3°C 62% 1.7 mph S2.7 kmh S 2.0 mph3.2 kmh 30.25 in1024.4 mb - 0.00 in0.0 mm 0.00 in0.0 mm
12:45 PM 58.5°F14.7°C 45.1°F7.3°C 61% 2.3 mph SW3.7 kmh SW 4.0 mph6.4 kmh 30.24 in1024.0 mb - 0.00 in0.0 mm 0.00 in0.0 mm
01:00 PM 59.0°F15.0°C 45.1°F7.3°C 60% 1.6 mph ESE2.6 kmh ESE 3.0 mph4.8 kmh 30.24 in1024.0 mb - 0.00 in0.0 mm 0.00 in0.0 mm
01:15 PM 58.8°F14.9°C 44.0°F6.7°C 58% 2.6 mph SSW4.2 kmh SSW 6.0 mph9.7 kmh 30.23 in1023.7 mb - 0.00 in0.0 mm 0.00 in0.0 mm
01:30 PM 58.0°F14.4°C 44.2°F6.8°C 60% 0.3 mph ENE0.5 kmh ENE 1.0 mph1.6 kmh 30.22 in1023.4 mb - 0.00 in0.0 mm 0.00 in0.0 mm
01:45 PM 58.4°F14.7°C 46.2°F7.9°C 64% 1.2 mph SSW1.9 kmh SSW 3.0 mph4.8 kmh 30.23 in1023.7 mb - 0.00 in0.0 mm 0.00 in0.0 mm
02:00 PM 58.3°F14.6°C 43.6°F6.4°C 58% 1.4 mph S2.3 kmh S 6.0 mph9.7 kmh 30.23 in1023.7 mb - 0.00 in0.0 mm 0.00 in0.0 mm
02:15 PM 58.5°F14.7°C 46.8°F8.2°C 65% 1.2 mph SE1.9 kmh SE 3.0 mph4.8 kmh 30.22 in1023.4 mb - 0.00 in0.0 mm 0.00 in0.0 mm
02:30 PM 58.2°F14.6°C 43.0°F6.1°C 57% 1.2 mph SSW1.9 kmh SSW 2.0 mph3.2 kmh 30.22 in1023.4 mb - 0.00 in0.0 mm 0.00 in0.0 mm
02:45 PM 58.2°F14.6°C 45.7°F7.6°C 63% 1.4 mph S2.3 kmh S 2.0 mph3.2 kmh 30.22 in1023.4 mb - 0.00 in0.0 mm 0.00 in0.0 mm
03:00 PM 58.6°F14.8°C 46.0°F7.8°C 63% 1.0 mph SW1.6 kmh SW 3.0 mph4.8 kmh 30.21 in1023.0 mb - 0.00 in0.0 mm 0.00 in0.0 mm
03:15 PM 58.9°F14.9°C 45.0°F7.2°C 60% 0.4 mph SW0.6 kmh SW -- 30.21 in1023.0 mb - 0.00 in0.0 mm 0.00 in0.0 mm
03:30 PM 59.0°F15.0°C 44.2°F6.8°C 58% 1.4 mph SE2.3 kmh SE 3.0 mph4.8 kmh 30.21 in1023.0 mb - 0.00 in0.0 mm 0.00 in0.0 mm
03:45 PM 58.9°F14.9°C 45.5°F7.5°C 61% 0.4 mph S0.6 kmh S 3.0 mph4.8 kmh 30.21 in1023.0 mb - 0.00 in0.0 mm 0.00 in0.0 mm
04:00 PM 58.6°F14.8°C 46.9°F8.3°C 65% 1.7 mph ESE2.7 kmh ESE 2.0 mph3.2 kmh 30.21 in1023.0 mb - 0.00 in0.0 mm 0.00 in0.0 mm
04:15 PM 58.2°F14.6°C 46.9°F8.3°C 66% 0.5 mph S0.8 kmh S 2.0 mph3.2 kmh 30.21 in1023.0 mb - 0.00 in0.0 mm 0.00 in0.0 mm
04:31 PM 57.9°F14.4°C 47.4°F8.6°C 68% 0.6 mph SE1.0 kmh SE 3.0 mph4.8 kmh 30.21 in1023.0 mb - 0.00 in0.0 mm 0.00 in0.0 mm
04:45 PM 57.5°F14.2°C 47.4°F8.6°C 69% 0.2 mph SSW0.3 kmh SSW 2.0 mph3.2 kmh 30.21 in1023.0 mb - 0.00 in0.0 mm 0.00 in0.0 mm
05:00 PM 56.9°F13.8°C 47.6°F8.7°C 71% Calm Calm -- 30.20 in1022.7 mb - 0.00 in0.0 mm 0.00 in0.0 mm
05:15 PM 56.2°F13.4°C 47.7°F8.7°C 73% Calm Calm -- 30.20 in1022.7 mb - 0.00 in0.0 mm 0.00 in0.0 mm
05:30 PM 55.4°F13.0°C 47.6°F8.7°C 75% 0.1 mph SSE0.2 kmh SSE -- 30.20 in1022.7 mb - 0.00 in0.0 mm 0.00 in0.0 mm
05:45 PM 54.8°F12.7°C 47.7°F8.7°C 77% Calm Calm -- 30.20 in1022.7 mb - 0.00 in0.0 mm 0.00 in0.0 mm
06:00 PM 54.0°F12.2°C 47.3°F8.5°C 78% Calm Calm -- 30.20 in1022.7 mb - 0.00 in0.0 mm 0.00 in0.0 mm
06:15 PM 53.0°F11.7°C 47.0°F8.3°C 80% Calm Calm -- 30.21 in1023.0 mb - 0.00 in0.0 mm 0.00 in0.0 mm
06:30 PM 52.2°F11.2°C 46.9°F8.3°C 82% Calm Calm -- 30.21 in1023.0 mb - 0.00 in0.0 mm 0.00 in0.0 mm
06:45 PM 51.3°F10.7°C 46.3°F7.9°C 83% Calm Calm -- 30.21 in1023.0 mb - 0.00 in0.0 mm 0.00 in0.0 mm
07:00 PM 50.5°F10.3°C 46.2°F7.9°C 85% Calm Calm -- 30.21 in1023.0 mb - 0.00 in0.0 mm 0.00 in0.0 mm
07:15 PM 49.8°F9.9°C 45.8°F7.7°C 86% Calm Calm -- 30.22 in1023.4 mb - 0.00 in0.0 mm 0.00 in0.0 mm
07:30 PM 49.1°F9.5°C 45.4°F7.4°C 87% Calm Calm -- 30.22 in1023.4 mb - 0.00 in0.0 mm 0.00 in0.0 mm
07:45 PM 48.6°F9.2°C 45.2°F7.3°C 88% Calm Calm -- 30.22 in1023.4 mb - 0.00 in0.0 mm 0.00 in0.0 mm
08:00 PM 48.1°F8.9°C 45.0°F7.2°C 89% 0.8 mph S1.3 kmh S 2.0 mph3.2 kmh 30.22 in1023.4 mb - 0.00 in0.0 mm 0.00 in0.0 mm
08:15 PM 47.6°F8.7°C 44.8°F7.1°C 90% 0.9 mph S1.4 kmh S 2.0 mph3.2 kmh 30.23 in1023.7 mb - 0.00 in0.0 mm 0.00 in0.0 mm
08:30 PM 47.2°F8.4°C 44.4°F6.9°C 90% 0.2 mph S0.3 kmh S 1.0 mph1.6 kmh 30.23 in1023.7 mb - 0.00 in0.0 mm 0.00 in0.0 mm
08:45 PM 47.0°F8.3°C 44.5°F6.9°C 91% 0.1 mph S0.2 kmh S -- 30.23 in1023.7 mb - 0.00 in0.0 mm 0.00 in0.0 mm
09:00 PM 46.8°F8.2°C 44.6°F7.0°C 92% 0.1 mph S0.2 kmh S 1.0 mph1.6 kmh 30.23 in1023.7 mb - 0.00 in0.0 mm 0.00 in0.0 mm
09:15 PM 46.7°F8.2°C 44.5°F6.9°C 92% Calm Calm -- 30.23 in1023.7 mb - 0.00 in0.0 mm 0.00 in0.0 mm
09:30 PM 46.5°F8.1°C 44.3°F6.8°C 92% Calm Calm -- 30.23 in1023.7 mb - 0.00 in0.0 mm 0.00 in0.0 mm
09:45 PM 46.3°F7.9°C 44.1°F6.7°C 92% Calm Calm -- 30.23 in1023.7 mb - 0.00 in0.0 mm 0.00 in0.0 mm
10:00 PM 46.1°F7.8°C 43.9°F6.6°C 92% Calm Calm -- 30.23 in1023.7 mb - 0.00 in0.0 mm 0.00 in0.0 mm
10:15 PM 45.9°F7.7°C 43.7°F6.5°C 92% Calm Calm -- 30.23 in1023.7 mb - 0.00 in0.0 mm 0.00 in0.0 mm
10:30 PM 45.7°F7.6°C 43.8°F6.6°C 93% Calm Calm -- 30.23 in1023.7 mb - 0.00 in0.0 mm 0.00 in0.0 mm
10:45 PM 45.5°F7.5°C 43.6°F6.4°C 93% Calm Calm -- 30.24 in1024.0 mb - 0.00 in0.0 mm 0.00 in0.0 mm
11:00 PM 45.4°F7.4°C 43.8°F6.6°C 94% Calm Calm -- 30.23 in1023.7 mb - 0.00 in0.0 mm 0.00 in0.0 mm
11:15 PM 45.4°F7.4°C 43.8°F6.6°C 94% Calm Calm -- 30.24 in1024.0 mb - 0.00 in0.0 mm 0.00 in0.0 mm
11:30 PM 45.4°F7.4°C 43.8°F6.6°C 94% Calm Calm -- 30.23 in1023.7 mb - 0.00 in0.0 mm 0.00 in0.0 mm
11:45 PM 45.3°F7.4°C 43.7°F6.5°C 94% Calm Calm -- 30.23 in1023.7 mb - 0.00 in0.0 mm 0.00 in0.0 mm